Close sub menu
NASDAQ
NY-Nasdaq Composite 25806,196 -32,75 -0,13% (23:16)
Stijgers 1 dag
Dalers 1 dag
Indices 1 dag
Datadog +31,3%
Fortinet +20,0%
Zscaler +10,1%
CrowdStrike Holdings +8,0%
Palo Alto Networks Inc +7,0%
Workday +6,7%
QUALCOMM +5,2%
Intuit +4,7%
Atlassian Corp +4,0%
Automatic Data Processing +3,3%
Tesla +3,3%
Autodesk +3,3%
Marvell Technology -7,1%
Baker Hughes Company -4,7%
NXP Semiconductors NV -4,4%
Applied Materials -4,2%
Lam Research Corp -3,6%
Constellation Energy Corp -3,6%
Align Technology -3,2%
Advanced Micro Devices -3,1%
Broadcom Inc. -3,0%
Intel Corp -3,0%
Micron Technology Inc -3,0%
KLA Corp -2,9%
AEX* 1.014,39-0,5%
Midkap* 1.050,51-0,4%
AMS Next 20®* 1.667,00+0,1%
FTSE100 10.243,29-0,3%
Dow Jones 49.596,97-0,6%
NASDAQ 25.806,196-0,1%
S&P500 7.337,11-0,4%
S&P Future 7.395,75+0,4%
BEL20** 5.469,75-1,5%
CAC 40** 8.202,08-1,2%
DAX 24.439,76-0,9%
* real time    ** slotkoers
AandelenKoersVorige+/-+/- %HoogLaagVolumeTijd
Adobe 256,51 250,17 +6,34 +2,5% -- -- 12.992 22:00
Advanced Micro Devices 408,25 421,39 -12,93 -3,1% -- -- 299.576 22:00
Airbnb 140,46 139,88 +0,58 +0,4% -- -- 2.267 22:00
Align Technology 168,32 173,94 -5,55 -3,2% -- -- 753.269 22:00
Alphabet 395,30 395,14 +0,16 0,0% -- -- 72.049 22:00
Alphabet 397,94 398,04 -0,05 0,0% -- -- 119.120 22:00
Amazon.com 271,17 274,99 -3,82 -1,4% -- -- 92.498 22:00
American Electric Power Company 131,75 132,56 -0,80 -0,6% -- -- 644 22:00
Amgen 329,06 331,11 -2,02 -0,6% -- -- 92 22:00
Analog Devices 408,65 415,63 -7,11 -1,7% -- -- 2.157 22:00
Ansys 374,30 374,30 -- -- -- -- 0 22:00
Apple 287,42 287,51 -0,07 0,0% -- -- 85.848 22:00
Applied Materials 410,52 428,62 -17,98 -4,2% -- -- 17.480 22:00
ASML Holding NV 1.516,60 1.544,74 -28,14 -1,8% -- -- 29.637 22:00
AstraZeneca PLC 194,94 194,94 0,00 0,0% 195,79 189,39 294.174 00:00
Atlassian Corp 92,37 88,80 +3,57 +4,0% -- -- 17.158 22:00
Autodesk 251,10 243,08 +7,96 +3,3% -- -- 3.002 22:00
Automatic Data Processing 214,09 207,20 +6,89 +3,3% -- -- 459 22:00
Baker Hughes Company 63,53 66,67 -3,14 -4,7% -- -- 2.180 22:00
Biogen 191,50 190,68 +0,70 +0,4% -- -- 1.380 22:00
Booking Holdings Inc. 171,28 168,32 +2,96 +1,8% -- -- 1.557 22:00
Broadcom Inc. 412,56 425,44 -12,88 -3,0% -- -- 65.084 22:00
Cadence Design Systems 356,90 354,90 +2,00 +0,6% -- -- 2.506 22:00
Charter Communications 160,24 156,52 +3,72 +2,4% -- -- 262 22:00
Cintas Corp 170,04 169,36 +0,68 +0,4% -- -- 15 22:00
Cisco Systems 92,17 91,64 +0,52 +0,6% -- -- 10.931 22:00
Cognizant Technology Solutions Corp 51,93 51,33 +0,61 +1,2% -- -- 737 22:00
Comcast Corp 26,23 26,44 -0,20 -0,8% -- -- 7.045 22:00
Constellation Energy Corp 311,30 322,78 -11,50 -3,6% -- -- 6.134 22:00
Copart 33,87 33,39 +0,49 +1,5% -- -- 518 22:00
CoStar Group 34,98 34,07 +0,91 +2,7% -- -- 221 22:00
Costco Wholesale Corp 1.012,06 995,75 +16,31 +1,6% -- -- 283 22:00
CrowdStrike Holdings 505,74 468,07 +37,65 +8,0% -- -- 12.027 22:00
CSX Corp 44,46 45,60 -1,14 -2,5% 45,62 44,38 14.880.447 22:00
Datadog 188,79 143,71 +45,02 +31,3% -- -- 18.297 22:00
DexCom 60,92 60,36 +0,55 +0,9% -- -- 282 22:00
Diamondback Energy 190,44 195,08 -4,63 -2,4% -- -- 876 22:00
Dollar Tree 96,76 96,51 +0,25 +0,3% -- -- 80 22:00
eBay 106,38 108,15 -1,73 -1,6% -- -- 1.225 22:00
Electronic Arts 200,86 200,79 +0,06 0,0% -- -- 46 22:00
Enphase Energy 35,46 35,80 -0,33 -0,9% -- -- 9.795 22:00
Exelon Corp 44,41 45,02 -0,61 -1,4% -- -- 248 22:00
Fastenal Co 44,36 44,71 -0,35 -0,8% -- -- 93 22:00
Fortinet 107,97 89,95 +18,02 +20,0% -- -- 9.084 22:00
Gilead Sciences 134,24 136,30 -2,24 -1,6% -- -- 2.510 22:00
GlobalFoundries 70,88 72,30 -1,37 -1,9% -- -- 8.561 22:00
Honeywell International 216,10 216,86 -0,79 -0,4% -- -- 445 22:00
IDEXX Laboratories 572,60 579,23 -7,03 -1,2% 585,12 566,02 758.922 22:00
Illumina 138,68 142,58 -3,87 -2,7% -- -- 395 22:00
Intel Corp 109,61 113,01 -3,39 -3,0% -- -- 1.495.203 22:00
Intuit 406,78 388,55 +18,23 +4,7% -- -- 3.432 22:00
Intuitive Surgical 453,34 451,73 +1,76 +0,4% -- -- 1.331 22:00
JD.com 30,21 30,69 -0,48 -1,6% -- -- 33.343 22:00
Keurig Dr Pepper 28,53 28,56 -0,04 -0,1% -- -- 20 22:00
KLA Corp 1.763,25 1.816,29 -53,04 -2,9% -- -- 1.987 22:00
Kraft Heinz Company (The) 23,66 23,07 +0,57 +2,5% -- -- 8.196 22:00
Lam Research Corp 286,41 297,17 -10,65 -3,6% -- -- 23.423 22:00
Lucid Group Inc 6,05 6,19 -0,14 -2,3% -- -- 35.646 22:00
lululemon athletica 133,61 132,04 +1,55 +1,2% -- -- 3.749 22:00
Marriott International 351,85 359,06 -7,01 -2,0% -- -- 4 22:00
Marvell Technology 160,02 172,15 -12,14 -7,1% -- -- 220.958 22:00
MercadoLibre 1.870,01 1.841,14 +28,87 +1,6% -- -- 2.531 22:00
Meta Platforms 616,91 612,88 +3,93 +0,6% -- -- 41.484 22:00
Microchip Technology 101,58 102,92 -1,34 -1,3% -- -- 12.370 22:00
Micron Technology Inc 646,47 666,59 -19,96 -3,0% -- -- 556.523 22:00
Microsoft Corp 420,92 413,96 +6,81 +1,6% -- -- 179.759 22:00
Moderna 48,56 48,79 -0,25 -0,5% -- -- 49.605 22:00
Mondelez International 61,31 61,87 -0,56 -0,9% -- -- 111 22:00
Monster Beverage Corp 75,98 77,20 -1,23 -1,6% -- -- 9.360 22:00
Netflix Inc. 88,26 88,27 -0,02 0,0% -- -- 139.693 22:00
NVIDIA Corp 211,50 207,83 +3,67 +1,8% -- -- 1.023.773 22:00
NXP Semiconductors NV 290,35 303,55 -13,33 -4,4% -- -- 1.848 22:00
Old Dominion Freight Line 198,08 200,62 -2,56 -1,3% 203,10 197,72 1.644.313 22:00
O'Reilly Automotive Inc 94,56 94,78 -0,20 -0,2% -- -- 10 22:00
PACCAR 114,04 116,51 -2,46 -2,1% -- -- 2.358.445 22:00
Palo Alto Networks Inc 196,51 183,68 +12,85 +7,0% -- -- 7.994 22:00
Paychex 94,26 91,38 +2,88 +3,2% -- -- 29 22:00
PayPal Holdings 46,22 46,27 -0,05 -0,1% -- -- 33.012 22:00
PDD Holdings 101,53 102,31 -0,80 -0,8% -- -- 81.573 22:00
Pepsico 156,26 155,96 +0,33 +0,2% -- -- 1.305 22:00
QUALCOMM 202,57 192,57 +9,98 +5,2% -- -- 506.173 22:00
Regeneron Pharmaceuticals 708,96 721,05 -11,95 -1,7% -- -- 99 22:00
Rivian Automotive 14,19 14,48 -0,30 -2,1% -- -- 91.442 22:00
Ross Stores 224,48 228,91 -4,43 -1,9% -- -- 74 22:00
Seagen 228,89 228,74 -- -- -- -- 0 22:00
SiriusXM Holdings Inc 26,74 26,68 +0,07 +0,3% -- -- 732 22:00
Starbucks Corp 104,26 106,44 -2,18 -2,0% -- -- 677 22:00
Synopsys 505,22 504,42 +0,77 +0,2% -- -- 854 22:00
Tesla 411,81 398,73 +13,06 +3,3% -- -- 573.412 22:00
Texas Instruments 285,16 289,44 -4,20 -1,5% -- -- 7.683 22:00
T-Mobile US 194,20 193,16 +1,04 +0,5% -- -- 207 22:00
Verisk Analytics 174,71 170,94 +3,75 +2,2% -- -- 6 22:00
Vertex Pharmaceuticals 425,00 427,65 -2,65 -0,6% -- -- 101 22:00
Walgreens Boots Alliance 11,98 11,98 -- -- -- -- 0 22:00
Warner Bros Discovery 27,12 27,20 -0,08 -0,3% -- -- 156 22:00
Workday 130,90 122,63 +8,25 +6,7% -- -- 3.628 22:00
Xcel Energy 80,43 80,55 -0,12 -0,1% -- -- 172 22:00
Zoom Communications Inc 108,36 105,13 +3,23 +3,1% -- -- 6.512 22:00
Zscaler 152,83 138,83 +13,96 +10,1% -- -- 5.016 22:00
Powered by

Schakel browser notificaties in

Schakel browser notificaties in om meldingen te ontvangen op dit apparaat.

Browser notificaties inschakelen

U heeft browser notificaties voor fd.nl eerder geweigerd. Ga naar browser instellingen en sta browser notificaties toe voor fd.nl. De precieze handelingen zijn afhankelijk van uw browser.

U volgt een onderwerp

Wanneer deze zoekterm in een artikel voorkomt, zult u deze terugvinden in Mijn nieuws onder ‘Eurobonds’.

Wilt u via de FD App meldingen ontvangen voor dit onderwerp?

Wilt u via de FD App meldingen ontvangen voor dit onderwerp?

Ons privacy statement is van toepassing.

Meldingen

Wanneer deze zoekterm in een artikel voorkomt, zult u deze terugvinden in Mijn nieuws onder ‘Eurobonds’.

Wilt u via de FD App meldingen ontvangen voor dit onderwerp?

Wilt u via de FD App meldingen ontvangen voor dit onderwerp?